createdAt,value
2019-05-01T00:02:41.055Z,18.07
2019-05-01T00:05:22.364Z,16.13
2019-05-01T00:07:52.486Z,16.83
2019-05-01T00:10:22.841Z,16.77
2019-05-01T00:12:52.937Z,15.70
2019-05-01T00:15:25.189Z,15.67
2019-05-01T00:17:55.244Z,17.13
2019-05-01T00:20:25.350Z,15.93
2019-05-01T00:22:55.423Z,15.77
2019-05-01T00:25:25.482Z,15.87
2019-05-01T00:27:55.553Z,16.47
2019-05-01T00:30:30.207Z,17.10
2019-05-01T00:32:58.625Z,15.73
2019-05-01T00:35:28.790Z,15.30
2019-05-01T00:37:58.902Z,16.60
2019-05-01T00:40:29.015Z,15.77
2019-05-01T00:42:59.244Z,15.07
2019-05-01T00:45:29.348Z,16.10
2019-05-01T00:47:59.476Z,15.33
2019-05-01T00:50:29.556Z,14.37
2019-05-01T00:52:59.621Z,15.80
2019-05-01T00:55:57.829Z,14.50
2019-05-01T00:58:42.781Z,13.47
2019-05-01T01:01:37.682Z,12.33
2019-05-01T01:04:08.431Z,12.87
2019-05-01T01:06:38.676Z,13.50
2019-05-01T01:09:09.423Z,13.43
2019-05-01T01:11:39.539Z,14.03
2019-05-01T01:14:09.587Z,13.43
2019-05-01T01:16:39.661Z,14.30
2019-05-01T01:19:09.720Z,13.53
2019-05-01T01:21:39.823Z,14.43
2019-05-01T01:24:09.975Z,13.53
2019-05-01T01:26:40.077Z,12.97
2019-05-01T01:29:10.252Z,11.80
2019-05-01T01:31:40.381Z,12.47
2019-05-01T01:34:10.467Z,14.10
2019-05-01T01:36:40.545Z,12.50
2019-05-01T01:39:10.650Z,13.00
2019-05-01T01:41:41.244Z,13.23
2019-05-01T01:44:27.494Z,12.63
2019-05-01T01:46:57.915Z,13.03
2019-05-01T01:49:28.014Z,12.57
2019-05-01T01:51:58.129Z,11.87
2019-05-01T01:54:31.333Z,12.70
2019-05-01T01:57:01.517Z,11.10
2019-05-01T01:59:31.908Z,11.67
2019-05-01T02:02:21.443Z,11.40
2019-05-01T02:05:13.915Z,10.87
2019-05-01T02:07:44.344Z,11.73
2019-05-01T02:10:16.267Z,12.53
2019-05-01T02:12:46.491Z,10.33
2019-05-01T02:15:16.595Z,12.20
2019-05-01T02:17:46.781Z,10.93
2019-05-01T02:20:17.097Z,11.40
2019-05-01T02:22:47.213Z,10.23
2019-05-01T02:25:17.386Z,10.70
2019-05-01T02:28:09.616Z,9.60
2019-05-01T02:30:41.826Z,10.70
2019-05-01T02:33:14.765Z,9.40
2019-05-01T02:35:45.397Z,8.13
2019-05-01T02:38:17.244Z,10.17
2019-05-01T02:40:54.326Z,9.00
2019-05-01T02:43:27.268Z,9.67
2019-05-01T02:46:00.700Z,9.70
2019-05-01T02:48:34.949Z,9.97
2019-05-01T02:51:06.532Z,9.60
2019-05-01T02:53:39.786Z,10.73
2019-05-01T02:56:29.671Z,9.73
2019-05-01T02:59:00.843Z,10.07
2019-05-01T03:01:45.659Z,8.63
2019-05-01T03:04:04.118Z,8.80
2019-05-01T03:06:34.783Z,9.53
2019-05-01T03:09:08.484Z,9.20
2019-05-01T03:11:41.245Z,9.77
2019-05-01T03:14:15.790Z,8.63
2019-05-01T03:16:48.669Z,8.73
2019-05-01T03:19:43.879Z,9.40
2019-05-01T03:22:39.255Z,8.57
2019-05-01T03:25:09.468Z,9.10
2019-05-01T03:27:41.528Z,8.57
2019-05-01T03:30:11.713Z,8.40
2019-05-01T03:32:42.381Z,9.13
2019-05-01T03:35:12.487Z,9.83
2019-05-01T03:37:42.801Z,9.23
2019-05-01T03:40:14.392Z,9.40
2019-05-01T03:42:44.777Z,8.87
2019-05-01T03:45:14.923Z,8.83
2019-05-01T03:47:45.076Z,8.60
2019-05-01T03:50:15.156Z,9.40
2019-05-01T03:52:45.599Z,8.70
2019-05-01T03:55:16.022Z,8.63
2019-05-01T03:57:46.576Z,10.03
2019-05-01T04:00:25.308Z,10.43
2019-05-01T04:03:20.231Z,9.43
2019-05-01T04:05:50.864Z,9.33
2019-05-01T04:08:21.441Z,8.70
2019-05-01T04:10:51.592Z,7.80
2019-05-01T04:13:21.668Z,7.80
2019-05-01T04:15:53.556Z,8.50
2019-05-01T04:18:24.562Z,7.87
2019-05-01T04:20:56.186Z,8.53
2019-05-01T04:23:26.625Z,8.63
2019-05-01T04:25:56.918Z,8.10
2019-05-01T04:28:39.782Z,8.43
2019-05-01T04:31:27.137Z,9.00
2019-05-01T04:33:59.515Z,7.87
2019-05-01T04:36:34.665Z,9.40
2019-05-01T04:39:06.758Z,8.57
2019-05-01T04:41:37.146Z,9.00
2019-05-01T04:44:07.304Z,8.77
2019-05-01T04:46:37.808Z,8.97
2019-05-01T04:49:07.886Z,9.37
2019-05-01T04:51:38.289Z,9.20
2019-05-01T04:54:08.350Z,9.37
2019-05-01T04:56:38.738Z,7.83
2019-05-01T04:59:09.020Z,7.83
2019-05-01T05:01:57.633Z,8.47
2019-05-01T05:04:28.034Z,7.73
2019-05-01T05:06:58.091Z,7.53
2019-05-01T05:09:47.719Z,8.10
2019-05-01T05:12:40.668Z,7.30
2019-05-01T05:15:28.858Z,7.73
2019-05-01T05:17:59.262Z,8.07
2019-05-01T05:20:29.346Z,6.47
2019-05-01T05:22:59.915Z,6.73
2019-05-01T05:25:30.688Z,7.53
2019-05-01T05:28:01.211Z,6.47
2019-05-01T05:30:34.787Z,6.50
2019-05-01T05:33:18.189Z,5.93
2019-05-01T05:35:41.950Z,6.47
2019-05-01T05:38:26.476Z,7.07
2019-05-01T05:41:00.352Z,7.17
2019-05-01T05:43:30.088Z,6.00
2019-05-01T05:46:00.769Z,5.60
2019-05-01T05:48:31.320Z,6.27
2019-05-01T05:51:11.082Z,6.03
2019-05-01T05:53:44.660Z,5.67
2019-05-01T05:56:21.904Z,5.77
2019-05-01T05:58:57.935Z,5.77
2019-05-01T06:01:48.496Z,5.50
2019-05-01T06:04:39.478Z,5.23
2019-05-01T06:07:23.243Z,5.30
2019-05-01T06:10:18.579Z,5.50
2019-05-01T06:13:08.302Z,5.10
2019-05-01T06:15:54.365Z,5.30
2019-05-01T06:18:30.143Z,5.30
2019-05-01T06:21:16.023Z,5.77
2019-05-01T06:24:06.295Z,4.90
2019-05-01T06:26:37.585Z,4.83
2019-05-01T06:29:05.783Z,4.77
2019-05-01T06:31:37.375Z,5.13
2019-05-01T06:34:07.435Z,4.40
2019-05-01T06:36:39.028Z,5.00
2019-05-01T06:39:11.774Z,4.70
2019-05-01T06:41:49.450Z,4.60
2019-05-01T06:44:44.979Z,4.03
2019-05-01T06:47:43.167Z,3.60
2019-05-01T06:50:28.405Z,3.40
2019-05-01T06:52:59.785Z,2.97
2019-05-01T06:55:31.464Z,3.47
2019-05-01T06:58:01.665Z,2.90
2019-05-01T07:00:32.364Z,3.50
2019-05-01T07:03:05.975Z,3.40
2019-05-01T07:05:35.195Z,2.97
2019-05-01T07:08:05.292Z,2.97
2019-05-01T07:10:43.594Z,2.53
2019-05-01T07:13:07.875Z,3.00
2019-05-01T07:15:37.979Z,2.63
2019-05-01T07:18:08.054Z,3.00
2019-05-01T07:20:56.298Z,2.57
2019-05-01T07:23:27.112Z,2.50
2019-05-01T07:25:57.437Z,2.90
2019-05-01T07:28:34.122Z,3.17
2019-05-01T07:31:07.339Z,2.83
2019-05-01T07:33:37.694Z,3.37
2019-05-01T07:36:14.851Z,2.83
2019-05-01T07:38:41.731Z,3.30
2019-05-01T07:41:12.525Z,3.10
2019-05-01T07:44:11.150Z,3.20
2019-05-01T07:47:06.353Z,3.07
2019-05-01T07:49:56.100Z,3.13
2019-05-01T07:52:26.897Z,2.80
2019-05-01T07:54:57.760Z,3.37
2019-05-01T07:57:28.555Z,3.83
2019-05-01T08:00:08.640Z,3.33
2019-05-01T08:02:39.225Z,3.37
2019-05-01T08:05:13.500Z,3.27
2019-05-01T08:07:44.502Z,3.33
2019-05-01T08:10:14.876Z,3.13
2019-05-01T08:12:45.281Z,2.60
2019-05-01T08:15:17.793Z,3.13
2019-05-01T08:18:05.595Z,2.77
2019-05-01T08:20:45.745Z,2.73
2019-05-01T08:23:16.167Z,2.93
2019-05-01T08:25:46.218Z,3.20
2019-05-01T08:28:27.699Z,3.30
2019-05-01T08:31:13.320Z,3.10
2019-05-01T08:34:00.340Z,3.77
2019-05-01T08:36:30.437Z,4.10
2019-05-01T08:39:00.556Z,4.60
2019-05-01T08:41:32.012Z,4.43
2019-05-01T08:44:02.753Z,3.57
2019-05-01T08:46:52.183Z,3.93
2019-05-01T08:49:35.194Z,3.87
2019-05-01T08:52:12.583Z,2.87
2019-05-01T08:54:37.279Z,2.77
2019-05-01T08:57:08.022Z,3.00
2019-05-01T08:59:38.412Z,2.83
2019-05-01T09:02:09.847Z,5.83
2019-05-01T09:04:40.086Z,4.90
2019-05-01T09:07:10.215Z,4.67
2019-05-01T09:09:45.466Z,5.00
2019-05-01T09:12:13.576Z,3.83
2019-05-01T09:14:43.782Z,3.63
2019-05-01T09:17:13.877Z,3.70
2019-05-01T09:19:43.950Z,4.00
2019-05-01T09:22:14.084Z,3.90
2019-05-01T09:24:45.152Z,4.03
2019-05-01T09:27:40.633Z,4.30
2019-05-01T09:30:21.810Z,4.73
2019-05-01T09:32:54.096Z,3.67
2019-05-01T09:35:23.173Z,3.90
2019-05-01T09:37:53.584Z,3.17
2019-05-01T09:40:24.301Z,3.53
2019-05-01T09:42:58.971Z,3.10
2019-05-01T09:45:26.797Z,3.30
2019-05-01T09:47:57.007Z,3.73
2019-05-01T09:50:30.518Z,4.30
2019-05-01T09:53:24.026Z,3.20
2019-05-01T09:56:19.343Z,3.27
2019-05-01T09:58:49.631Z,3.37
2019-05-01T10:01:24.076Z,3.40
2019-05-01T10:03:54.537Z,3.27
2019-05-01T10:06:23.496Z,4.00
2019-05-01T10:08:53.636Z,3.23
2019-05-01T10:11:23.735Z,3.00
2019-05-01T10:13:59.701Z,3.70
2019-05-01T10:16:31.974Z,2.97
2019-05-01T10:19:03.916Z,1.43
2019-05-01T10:21:34.002Z,2.97
2019-05-01T10:24:04.732Z,3.07
2019-05-01T10:26:36.643Z,3.50
2019-05-01T10:29:25.863Z,2.93
2019-05-01T10:32:01.227Z,2.40
2019-05-01T10:34:42.919Z,2.77
2019-05-01T10:37:12.272Z,3.50
2019-05-01T10:39:42.450Z,2.77
2019-05-01T10:42:12.800Z,2.97
2019-05-01T10:44:44.456Z,2.77
2019-05-01T10:47:14.507Z,2.20
2019-05-01T10:49:47.677Z,2.53
2019-05-01T10:52:17.760Z,2.73
2019-05-01T10:54:47.901Z,3.30
2019-05-01T10:57:18.023Z,2.90
2019-05-01T10:59:48.161Z,3.20
2019-05-01T11:02:19.093Z,2.90
2019-05-01T11:04:50.922Z,3.00
2019-05-01T11:07:21.052Z,2.50
2019-05-01T11:09:51.175Z,2.60
2019-05-01T11:12:21.328Z,3.27
2019-05-01T11:14:51.491Z,2.80
2019-05-01T11:17:21.659Z,2.90
2019-05-01T11:19:51.940Z,3.53
2019-05-01T11:22:22.089Z,3.50
2019-05-01T11:24:52.166Z,3.83
2019-05-01T11:27:22.334Z,3.57
2019-05-01T11:29:52.436Z,4.00
2019-05-01T11:32:32.136Z,4.07
2019-05-01T11:35:21.202Z,4.13
2019-05-01T11:38:01.307Z,4.57
2019-05-01T11:40:35.145Z,4.23
2019-05-01T11:43:05.320Z,4.83
2019-05-01T11:45:35.461Z,4.37
2019-05-01T11:48:05.676Z,5.20
2019-05-01T11:50:35.791Z,5.00
2019-05-01T11:53:06.194Z,4.90
2019-05-01T11:55:36.332Z,4.67
2019-05-01T11:58:06.415Z,4.70
2019-05-01T12:00:36.531Z,4.57
2019-05-01T12:03:06.621Z,4.30
2019-05-01T12:05:36.723Z,4.57
2019-05-01T12:08:06.828Z,4.87
2019-05-01T12:10:36.929Z,4.97
2019-05-01T12:13:07.225Z,5.30
2019-05-01T12:15:37.362Z,4.53
2019-05-01T12:18:07.514Z,5.07
2019-05-01T12:20:37.621Z,4.93
2019-05-01T12:23:07.725Z,4.80
2019-05-01T12:25:37.958Z,5.03
2019-05-01T12:28:08.102Z,5.03
2019-05-01T12:30:38.242Z,3.90
2019-05-01T12:33:08.373Z,5.47
2019-05-01T12:35:38.486Z,4.47
2019-05-01T12:38:08.577Z,4.77
2019-05-01T12:40:38.750Z,5.33
2019-05-01T12:43:08.868Z,5.33
2019-05-01T12:45:38.959Z,4.90
2019-05-01T12:48:09.097Z,5.33
2019-05-01T12:50:39.216Z,5.67
2019-05-01T12:53:23.554Z,5.30
2019-05-01T12:56:15.788Z,5.67
2019-05-01T12:58:47.094Z,4.83
2019-05-01T13:01:17.238Z,4.50
2019-05-01T13:03:47.374Z,4.77
2019-05-01T13:06:17.928Z,4.37
2019-05-01T13:08:48.091Z,4.87
2019-05-01T13:11:18.265Z,5.00
2019-05-01T13:13:48.468Z,4.87
2019-05-01T13:16:18.584Z,4.63
2019-05-01T13:18:54.966Z,4.33
2019-05-01T13:21:25.189Z,4.60
2019-05-01T13:23:55.290Z,4.63
2019-05-01T13:26:34.680Z,4.40
2019-05-01T13:29:23.437Z,5.33
2019-05-01T13:32:01.086Z,5.67
2019-05-01T13:34:31.236Z,6.63
2019-05-01T13:37:03.115Z,6.10
2019-05-01T13:39:33.556Z,5.33
2019-05-01T13:42:03.651Z,6.03
2019-05-01T13:44:34.083Z,6.27
2019-05-01T13:47:04.549Z,5.47
2019-05-01T13:49:36.154Z,5.70
2019-05-01T13:52:06.440Z,6.00
2019-05-01T13:54:36.894Z,5.40
2019-05-01T13:57:07.043Z,5.63
2019-05-01T13:59:37.232Z,5.83
2019-05-01T14:02:07.496Z,5.97
2019-05-01T14:04:37.785Z,5.13
2019-05-01T14:07:16.284Z,6.13
2019-05-01T14:09:40.435Z,4.00
2019-05-01T14:12:10.668Z,6.53
2019-05-01T14:14:40.838Z,5.00
2019-05-01T14:17:11.221Z,5.27
2019-05-01T14:19:44.190Z,4.40
2019-05-01T14:22:42.631Z,5.03
2019-05-01T14:25:13.157Z,4.27
2019-05-01T14:27:43.762Z,3.57
2019-05-01T14:30:14.166Z,4.80
2019-05-01T14:32:44.572Z,4.10
2019-05-01T14:35:16.492Z,3.60
2019-05-01T14:37:46.618Z,3.40
2019-05-01T14:40:16.834Z,5.13
2019-05-01T14:42:47.116Z,17.60
2019-05-01T14:45:17.558Z,39.63
2019-05-01T14:47:47.870Z,31.30
2019-05-01T14:50:18.121Z,31.70
2019-05-01T14:52:51.293Z,15.23
2019-05-01T14:55:21.381Z,19.13
2019-05-01T14:57:51.638Z,5.77
2019-05-01T15:00:22.009Z,4.73
2019-05-01T15:02:52.211Z,4.40
2019-05-01T15:05:22.340Z,4.47
2019-05-01T15:07:52.477Z,4.37
2019-05-01T15:10:22.589Z,4.20
2019-05-01T15:12:54.560Z,4.60
2019-05-01T15:15:47.576Z,4.47
2019-05-01T15:18:33.457Z,4.10
2019-05-01T15:21:03.707Z,3.73
2019-05-01T15:23:33.938Z,4.23
2019-05-01T15:26:04.056Z,4.33
2019-05-01T15:28:34.160Z,4.70
2019-05-01T15:31:04.278Z,3.80
2019-05-01T15:33:34.452Z,4.00
2019-05-01T15:36:04.671Z,3.53
2019-05-01T15:38:34.820Z,3.73
2019-05-01T15:41:16.518Z,4.17
2019-05-01T15:44:08.348Z,4.13
2019-05-01T15:46:40.086Z,5.07
2019-05-01T15:49:10.346Z,4.07
2019-05-01T15:51:40.616Z,4.57
2019-05-01T15:54:10.769Z,4.53
2019-05-01T15:56:41.029Z,4.70
2019-05-01T15:59:11.300Z,4.23
2019-05-01T16:01:41.652Z,3.67
2019-05-01T16:04:11.873Z,4.73
2019-05-01T16:06:42.021Z,4.50
2019-05-01T16:09:12.514Z,4.03
2019-05-01T16:12:04.503Z,4.47
2019-05-01T16:14:34.634Z,4.50
2019-05-01T16:17:04.839Z,4.73
2019-05-01T16:19:35.081Z,4.13
2019-05-01T16:22:05.997Z,5.10
2019-05-01T16:24:36.155Z,5.60
2019-05-01T16:27:06.976Z,4.97
2019-05-01T16:29:37.127Z,5.17
2019-05-01T16:32:07.436Z,4.07
2019-05-01T16:34:37.553Z,4.70
2019-05-01T16:37:07.697Z,5.00
2019-05-01T16:40:02.441Z,4.90
2019-05-01T16:42:35.046Z,4.93
2019-05-01T16:45:06.788Z,5.30
2019-05-01T16:47:37.195Z,4.80
2019-05-01T16:50:08.895Z,5.03
2019-05-01T16:52:39.610Z,4.57
2019-05-01T16:55:10.429Z,5.37
2019-05-01T16:57:40.612Z,4.93
2019-05-01T17:00:13.127Z,4.80
2019-05-01T17:03:01.241Z,4.37
2019-05-01T17:05:59.546Z,4.70
2019-05-01T17:08:42.121Z,3.43
2019-05-01T17:11:12.804Z,4.53
2019-05-01T17:13:42.934Z,4.30
2019-05-01T17:16:13.327Z,3.97
2019-05-01T17:18:43.591Z,4.07
2019-05-01T17:21:13.760Z,5.83
2019-05-01T17:23:43.956Z,5.93
2019-05-01T17:26:14.190Z,4.70
2019-05-01T17:28:46.466Z,4.10
2019-05-01T17:31:16.676Z,3.13
2019-05-01T17:33:50.854Z,4.13
2019-05-01T17:36:18.936Z,3.77
2019-05-01T17:38:50.094Z,3.60
2019-05-01T17:41:22.715Z,4.67
2019-05-01T17:43:52.212Z,3.90
2019-05-01T17:46:22.846Z,4.27
2019-05-01T17:48:53.267Z,4.47
2019-05-01T17:51:24.287Z,4.30
2019-05-01T17:53:55.108Z,4.40
2019-05-01T17:56:28.331Z,3.93
2019-05-01T17:58:57.619Z,4.00
2019-05-01T18:01:47.453Z,3.73
2019-05-01T18:04:26.512Z,3.27
2019-05-01T18:06:56.942Z,4.10
2019-05-01T18:09:27.151Z,3.87
2019-05-01T18:11:57.330Z,3.37
2019-05-01T18:14:27.879Z,3.50
2019-05-01T18:16:58.173Z,3.90
2019-05-01T18:19:28.552Z,3.40
2019-05-01T18:22:12.188Z,4.20
2019-05-01T18:25:10.567Z,3.77
2019-05-01T18:27:58.944Z,4.07
2019-05-01T18:30:40.678Z,3.67
2019-05-01T18:33:10.996Z,4.33
2019-05-01T18:35:44.917Z,4.27
2019-05-01T18:38:35.334Z,3.97
2019-05-01T18:41:21.081Z,3.90
2019-05-01T18:43:51.449Z,4.77
2019-05-01T18:46:22.071Z,4.03
2019-05-01T18:48:52.352Z,3.90
2019-05-01T18:51:22.860Z,3.40
2019-05-01T18:53:57.378Z,3.83
2019-05-01T18:56:25.469Z,3.27
2019-05-01T18:58:56.316Z,3.63
2019-05-01T19:01:26.670Z,3.47
2019-05-01T19:04:00.129Z,3.27
2019-05-01T19:06:41.010Z,3.73
2019-05-01T19:09:14.263Z,3.40
2019-05-01T19:11:35.408Z,3.43
2019-05-01T19:14:06.435Z,3.83
2019-05-01T19:16:39.877Z,3.17
2019-05-01T19:19:11.020Z,3.73
2019-05-01T19:21:48.008Z,3.40
2019-05-01T19:24:18.626Z,3.93
2019-05-01T19:26:51.523Z,3.60
2019-05-01T19:29:21.859Z,3.93
2019-05-01T19:31:52.274Z,4.03
2019-05-01T19:34:24.087Z,4.30
2019-05-01T19:36:54.847Z,4.27
2019-05-01T19:39:27.080Z,4.07
2019-05-01T19:41:58.144Z,3.93
2019-05-01T19:44:29.364Z,3.83
2019-05-01T19:47:00.373Z,4.03
2019-05-01T19:49:31.115Z,3.80
2019-05-01T19:52:02.880Z,3.70
2019-05-01T19:54:33.778Z,3.70
2019-05-01T19:57:04.463Z,3.90
2019-05-01T19:59:34.789Z,3.83
2019-05-01T20:02:06.600Z,3.70
2019-05-01T20:04:37.424Z,3.57
2019-05-01T20:07:15.826Z,3.90
2019-05-01T20:09:56.708Z,3.43
2019-05-01T20:12:20.540Z,3.60
2019-05-01T20:14:50.948Z,4.13
2019-05-01T20:17:21.440Z,4.00
2019-05-01T20:19:51.848Z,3.90
2019-05-01T20:22:24.091Z,4.03
2019-05-01T20:24:59.079Z,3.80
2019-05-01T20:27:29.348Z,3.67
2019-05-01T20:30:01.005Z,3.67
2019-05-01T20:32:31.376Z,4.17
2019-05-01T20:35:02.065Z,4.60
2019-05-01T20:37:32.387Z,4.00
2019-05-01T20:40:11.335Z,3.23
2019-05-01T20:42:36.523Z,3.80
2019-05-01T20:45:13.030Z,3.50
2019-05-01T20:47:45.121Z,3.50
2019-05-01T20:50:15.375Z,3.00
2019-05-01T20:52:45.762Z,3.53
2019-05-01T20:55:15.998Z,3.57
2019-05-01T20:57:47.243Z,3.77
2019-05-01T21:00:18.614Z,3.63
2019-05-01T21:02:48.829Z,3.30
2019-05-01T21:05:27.325Z,2.87
2019-05-01T21:08:19.389Z,3.73
2019-05-01T21:10:54.024Z,3.43
2019-05-01T21:13:25.137Z,3.40
2019-05-01T21:15:56.309Z,4.10
2019-05-01T21:18:27.795Z,3.83
2019-05-01T21:20:57.911Z,3.80
2019-05-01T21:23:28.083Z,3.60
2019-05-01T21:25:58.403Z,3.40
2019-05-01T21:28:28.542Z,4.03
2019-05-01T21:30:58.638Z,4.33
2019-05-01T21:33:28.887Z,4.73
2019-05-01T21:35:59.537Z,4.57
2019-05-01T21:38:30.802Z,4.70
2019-05-01T21:41:02.731Z,4.03
2019-05-01T21:43:36.914Z,5.13
2019-05-01T21:46:04.660Z,4.50
2019-05-01T21:48:34.753Z,4.40
2019-05-01T21:51:07.285Z,4.97
2019-05-01T21:53:37.401Z,4.60
2019-05-01T21:56:08.481Z,4.17
2019-05-01T21:58:38.551Z,4.63
2019-05-01T22:01:08.797Z,3.00
2019-05-01T22:03:38.892Z,4.47
2019-05-01T22:06:11.229Z,4.23
2019-05-01T22:08:41.171Z,3.90
2019-05-01T22:11:11.242Z,4.23
2019-05-01T22:13:41.521Z,4.13
2019-05-01T22:16:22.022Z,3.90
2019-05-01T22:19:07.715Z,4.37
2019-05-01T22:21:54.929Z,3.93
2019-05-01T22:24:42.847Z,3.83
2019-05-01T22:27:20.492Z,3.50
2019-05-01T22:30:00.206Z,3.70
2019-05-01T22:32:34.537Z,3.53
2019-05-01T22:35:14.513Z,3.37
2019-05-01T22:37:44.552Z,3.53
2019-05-01T22:40:17.273Z,3.57
2019-05-01T22:42:47.349Z,3.30
2019-05-01T22:45:21.669Z,3.17
2019-05-01T22:47:52.078Z,3.73
2019-05-01T22:50:29.865Z,3.30
2019-05-01T22:52:59.927Z,3.40
2019-05-01T22:55:30.013Z,2.90
2019-05-01T22:58:00.063Z,3.27
2019-05-01T23:00:50.101Z,4.10
2019-05-01T23:03:24.423Z,3.53
2019-05-01T23:05:54.508Z,3.20
2019-05-01T23:08:25.278Z,4.13
2019-05-01T23:10:55.437Z,3.63
2019-05-01T23:13:25.714Z,4.20
2019-05-01T23:15:56.587Z,3.60
2019-05-01T23:18:27.756Z,3.00
2019-05-01T23:20:57.844Z,3.10
2019-05-01T23:23:28.387Z,3.87
2019-05-01T23:25:58.483Z,3.83
2019-05-01T23:28:28.596Z,3.93
2019-05-01T23:30:58.792Z,3.03
2019-05-01T23:33:28.945Z,3.43
2019-05-01T23:35:58.985Z,3.07
2019-05-01T23:38:29.133Z,3.27
2019-05-01T23:40:59.218Z,2.83
2019-05-01T23:43:29.279Z,2.37
2019-05-01T23:45:59.355Z,3.10
2019-05-01T23:48:29.446Z,3.27
2019-05-01T23:50:59.538Z,3.17
2019-05-01T23:53:29.603Z,3.27
2019-05-01T23:56:01.685Z,3.57
2019-05-01T23:58:31.533Z,3.33
